Time,TemperatureF,DewpointF,PressureIn,WindDirection,WindDirectionDegrees,WindSpeedMPH,WindSpeedGustMPH,Humidity,HourlyPrecipIn,Conditions,Clouds,dailyrainin,SoftwareType,DateUTC
2013-03-17 00:00:00,36.1,26.2,29.74,ESE,106,2.0,6.0,67,0.00,CLR,,0.00,WeatherDisplay:10.37,2013-03-17 06:00:00,
2013-03-17 00:30:00,36.1,26.2,29.74,ESE,116,0.0,7.0,67,0.00,CLR,,0.00,WeatherDisplay:10.37,2013-03-17 06:30:00,
2013-03-17 01:00:00,35.5,26.0,29.74,ESE,110,3.0,7.0,68,0.00,CLR,,0.00,WeatherDisplay:10.37,2013-03-17 07:00:00,
2013-03-17 01:30:00,34.0,25.9,29.75,ESE,123,0.0,6.0,72,0.00,CLR,,0.00,WeatherDisplay:10.37,2013-03-17 07:30:00,
2013-03-17 02:00:00,33.0,25.3,29.75,East,97,0.0,5.0,73,0.00,CLR,,0.00,WeatherDisplay:10.37,2013-03-17 08:00:00,
2013-03-17 02:30:00,32.1,25.1,29.74,ESE,109,3.0,5.0,75,0.00,CLR,,0.00,WeatherDisplay:10.37,2013-03-17 08:30:00,
2013-03-17 03:00:00,32.1,25.4,29.71,ESE,107,2.0,4.0,76,0.00,CLR,,0.00,WeatherDisplay:10.37,2013-03-17 09:00:00,
2013-03-17 03:30:00,33.5,25.8,29.70,ESE,105,5.0,7.0,73,0.00,CLR,,0.00,WeatherDisplay:10.37,2013-03-17 09:30:00,
2013-03-17 04:00:00,34.0,26.3,29.68,ESE,114,3.0,10.0,73,0.00,CLR,,0.00,WeatherDisplay:10.37,2013-03-17 10:00:00,
2013-03-17 04:30:00,34.7,26.3,29.66,ESE,106,3.0,8.0,71,0.00,CLR,,0.00,WeatherDisplay:10.37,2013-03-17 10:30:00,
2013-03-17 05:00:00,36.2,27.0,29.68,East,98,2.0,6.0,69,0.00,CLR,,0.00,WeatherDisplay:10.37,2013-03-17 11:00:00,
2013-03-17 05:30:00,36.4,26.8,29.70,WSW,242,1.0,7.0,68,0.00,CLR,,0.00,WeatherDisplay:10.37,2013-03-17 11:30:00,
2013-03-17 06:00:00,35.8,27.0,29.73,WNW,282,0.0,4.0,70,0.00,CLR,,0.00,WeatherDisplay:10.37,2013-03-17 12:00:00,
2013-03-17 06:30:00,35.5,27.7,29.71,NE,49,0.0,5.0,73,0.00,CLR,,0.00,WeatherDisplay:10.37,2013-03-17 12:30:00,
2013-03-17 07:00:00,36.9,28.0,29.73,SE,144,3.0,5.0,70,0.00,CLR,,0.00,WeatherDisplay:10.37,2013-03-17 13:00:00,
2013-03-17 07:30:00,37.5,30.6,29.74,South,170,3.0,8.0,76,0.01,RA,,0.01,WeatherDisplay:10.37,2013-03-17 13:30:00,
2013-03-17 08:00:00,36.4,31.4,29.74,SSW,194,3.0,12.0,82,0.00,CLR,,0.01,WeatherDisplay:10.37,2013-03-17 14:00:00,
2013-03-17 08:30:00,36.4,32.0,29.75,South,177,0.0,7.0,84,0.01,CLR,,0.02,WeatherDisplay:10.37,2013-03-17 14:30:00,
2013-03-17 08:59:00,35.6,32.2,29.73,ENE,73,2.0,3.0,87,0.00,CLR,,0.02,WeatherDisplay:10.37,2013-03-17 14:59:00,
2013-03-17 09:30:00,39.2,34.2,29.73,East,96,3.0,6.0,82,0.00,CLR,,0.02,WeatherDisplay:10.37,2013-03-17 15:30:00,
2013-03-17 10:00:00,41.4,35.1,29.73,ESE,115,2.0,7.0,78,0.00,CLR,,0.02,WeatherDisplay:10.37,2013-03-17 16:00:00,
2013-03-17 10:30:00,43.3,33.8,29.72,East,94,0.0,6.0,69,0.00,CLR,,0.02,WeatherDisplay:10.37,2013-03-17 16:30:00,
2013-03-17 11:00:00,44.4,35.6,29.70,ESE,112,0.0,5.0,71,0.00,CLR,,0.02,WeatherDisplay:10.37,2013-03-17 17:00:00,
2013-03-17 11:30:00,48.1,33.1,29.69,SSW,208,1.0,5.0,56,0.00,CLR,,0.02,WeatherDisplay:10.37,2013-03-17 17:30:00,
2013-03-17 11:59:00,50.3,31.9,29.68,WSW,246,5.0,14.0,49,0.00,CLR,,0.02,WeatherDisplay:10.37,2013-03-17 17:59:00,
2013-03-17 12:30:00,50.2,29.1,29.67,West,274,9.0,17.0,44,0.00,CLR,,0.02,WeatherDisplay:10.37,2013-03-17 18:30:00,
2013-03-17 13:00:00,51.2,25.1,29.66,WSW,257,6.0,18.0,36,0.00,CLR,,0.02,WeatherDisplay:10.37,2013-03-17 19:00:00,
2013-03-17 13:30:00,52.1,24.5,29.66,West,269,7.0,20.0,34,0.00,CLR,,0.02,WeatherDisplay:10.37,2013-03-17 19:30:00,
2013-03-17 14:00:00,51.3,23.8,29.66,WNW,302,2.0,15.0,34,0.00,CLR,,0.02,WeatherDisplay:10.37,2013-03-17 20:00:00,
2013-03-17 14:30:00,50.9,21.3,29.65,West,268,6.0,21.0,31,0.00,CLR,,0.02,WeatherDisplay:10.37,2013-03-17 20:30:00,
2013-03-17 15:00:00,52.1,23.1,29.65,West,275,7.0,20.0,32,0.00,CLR,,0.02,WeatherDisplay:10.37,2013-03-17 21:00:00,
2013-03-17 15:30:00,49.8,20.3,29.66,West,266,8.0,26.0,31,0.00,CLR,,0.02,WeatherDisplay:10.37,2013-03-17 21:30:00,
2013-03-17 16:00:00,50.1,18.2,29.65,WSW,258,3.0,27.0,28,0.00,CLR,,0.02,WeatherDisplay:10.37,2013-03-17 22:00:00,
2013-03-17 16:30:00,50.6,18.6,29.67,West,276,3.0,22.0,28,0.00,CLR,,0.02,WeatherDisplay:10.37,2013-03-17 22:30:00,
2013-03-17 17:00:00,49.5,17.7,29.69,West,265,6.0,18.0,28,0.00,CLR,,0.02,WeatherDisplay:10.37,2013-03-17 23:00:00,
2013-03-17 17:30:00,47.8,16.2,29.73,West,274,13.0,21.0,28,0.00,CLR,,0.02,WeatherDisplay:10.37,2013-03-17 23:30:00,
2013-03-17 18:00:00,47.6,17.6,29.73,WNW,303,2.0,20.0,30,0.00,CLR,,0.02,WeatherDisplay:10.37,2013-03-18 00:00:00,
2013-03-17 18:30:00,47.8,15.4,29.75,NW,316,2.0,17.0,27,0.00,CLR,,0.02,WeatherDisplay:10.37,2013-03-18 00:30:00,
2013-03-17 19:30:00,45.4,12.5,29.76,West,272,1.0,25.0,26,0.00,CLR,,0.02,WeatherDisplay:10.37,2013-03-18 01:30:00,
2013-03-17 20:00:00,44.3,12.4,29.78,WNW,292,1.0,13.0,27,0.00,CLR,,0.02,WeatherDisplay:10.37,2013-03-18 02:00:00,
2013-03-17 20:30:00,43.4,12.4,29.80,NW,315,2.0,16.0,28,0.00,CLR,,0.02,WeatherDisplay:10.37,2013-03-18 02:30:00,
2013-03-17 21:00:00,41.3,12.9,29.82,WSW,251,0.0,10.0,31,0.00,CLR,,0.02,WeatherDisplay:10.37,2013-03-18 03:00:00,
2013-03-17 21:30:00,39.9,13.8,29.83,West,270,1.0,6.0,34,0.00,CLR,,0.02,WeatherDisplay:10.37,2013-03-18 03:30:00,
2013-03-17 22:30:00,37.1,14.4,29.86,West,277,0.0,4.0,39,0.00,CLR,,0.02,WeatherDisplay:10.37,2013-03-18 04:30:00,
2013-03-17 23:00:00,36.3,14.3,29.87,West,273,0.0,3.0,40,0.00,CLR,,0.02,WeatherDisplay:10.37,2013-03-18 05:00:00,
2013-03-17 23:30:00,35.0,14.2,29.88,West,273,0.0,0.0,42,0.00,CLR,,0.02,WeatherDisplay:10.37,2013-03-18 05:30:00,